createdAt,value
2019-04-05T00:00:30.982Z,988.08
2019-04-05T00:01:30.974Z,988.05
2019-04-05T00:02:30.959Z,988.06
2019-04-05T00:03:30.952Z,988.02
2019-04-05T00:04:30.938Z,988.04
2019-04-05T00:05:30.924Z,988.05
2019-04-05T00:06:30.952Z,988.03
2019-04-05T00:07:30.900Z,988.03
2019-04-05T00:08:30.892Z,988.12
2019-04-05T00:09:30.882Z,988.13
2019-04-05T00:10:30.870Z,988.16
2019-04-05T00:11:30.886Z,988.15
2019-04-05T00:12:30.848Z,988.14
2019-04-05T00:13:30.840Z,988.16
2019-04-05T00:14:30.822Z,988.14
2019-04-05T00:15:30.836Z,988.16
2019-04-05T00:16:30.808Z,988.14
2019-04-05T00:17:30.824Z,988.18
2019-04-05T00:18:30.784Z,988.19
2019-04-05T00:19:30.783Z,988.21
2019-04-05T00:20:30.759Z,988.23
2019-04-05T00:21:30.748Z,988.22
2019-04-05T00:22:30.734Z,988.26
2019-04-05T00:23:30.769Z,988.26
2019-04-05T00:24:30.720Z,988.30
2019-04-05T00:25:30.703Z,988.26
2019-04-05T00:26:30.698Z,988.26
2019-04-05T00:27:30.689Z,988.32
2019-04-05T00:28:30.677Z,988.28
2019-04-05T00:29:30.686Z,988.36
2019-04-05T00:30:30.649Z,988.33
2019-04-05T00:31:30.645Z,988.36
2019-04-05T00:32:31.592Z,988.36
2019-04-05T00:33:30.625Z,988.41
2019-04-05T00:34:30.608Z,988.41
2019-04-05T00:35:30.621Z,988.45
2019-04-05T00:36:30.579Z,988.41
2019-04-05T00:37:30.580Z,988.43
2019-04-05T00:38:30.559Z,988.41
2019-04-05T00:39:30.552Z,988.43
2019-04-05T00:40:30.574Z,988.41
2019-04-05T00:41:32.949Z,988.43
2019-04-05T00:42:30.549Z,988.41
2019-04-05T00:43:30.514Z,988.41
2019-04-05T00:44:30.499Z,988.46
2019-04-05T00:45:30.498Z,988.48
2019-04-05T00:46:30.475Z,988.57
2019-04-05T00:47:30.484Z,988.56
2019-04-05T00:48:30.457Z,988.63
2019-04-05T00:49:30.442Z,988.67
2019-04-05T00:50:30.426Z,988.65
2019-04-05T00:52:29.436Z,988.62
2019-04-05T00:53:30.394Z,988.61
2019-04-05T00:54:30.384Z,988.67
2019-04-05T00:55:30.383Z,988.74
2019-04-05T00:56:30.370Z,988.76
2019-04-05T00:57:30.359Z,988.84
2019-04-05T00:58:30.345Z,988.84
2019-04-05T00:59:30.329Z,988.86
2019-04-05T01:00:30.322Z,988.84
2019-04-05T01:01:30.318Z,988.82
2019-04-05T01:02:30.297Z,988.81
2019-04-05T01:03:30.329Z,988.86
2019-04-05T01:04:30.279Z,988.83
2019-04-05T01:05:30.272Z,988.88
2019-04-05T01:06:30.260Z,988.88
2019-04-05T01:07:30.242Z,988.92
2019-04-05T01:08:30.237Z,988.89
2019-04-05T01:09:30.219Z,988.92
2019-04-05T01:10:30.228Z,988.92
2019-04-05T01:11:30.207Z,988.91
2019-04-05T01:12:32.005Z,988.92
2019-04-05T01:13:30.175Z,988.96
2019-04-05T01:14:30.170Z,988.98
2019-04-05T01:15:40.158Z,988.98
2019-04-05T01:16:30.148Z,988.96
2019-04-05T01:17:30.134Z,988.98
2019-04-05T01:18:33.048Z,989.00
2019-04-05T01:19:30.114Z,988.99
2019-04-05T01:20:30.127Z,989.00
2019-04-05T01:21:30.094Z,989.01
2019-04-05T01:22:30.085Z,989.10
2019-04-05T01:23:30.071Z,989.14
2019-04-05T01:24:30.055Z,989.17
2019-04-05T01:25:30.059Z,989.17
2019-04-05T01:26:30.039Z,989.18
2019-04-05T01:27:30.027Z,989.15
2019-04-05T01:28:30.079Z,989.16
2019-04-05T01:29:30.000Z,989.16
2019-04-05T01:30:29.993Z,989.14
2019-04-05T01:31:32.546Z,989.15
2019-04-05T01:32:32.543Z,989.16
2019-04-05T01:33:29.972Z,989.14
2019-04-05T01:34:29.985Z,989.14
2019-04-05T01:35:29.939Z,989.13
2019-04-05T01:36:29.936Z,989.14
2019-04-05T01:37:29.933Z,989.15
2019-04-05T01:38:29.901Z,989.15
2019-04-05T01:39:29.891Z,989.21
2019-04-05T01:40:29.905Z,989.24
2019-04-05T01:41:29.873Z,989.24
2019-04-05T01:42:29.874Z,989.23
2019-04-05T01:43:29.846Z,989.22
2019-04-05T01:44:29.847Z,989.22
2019-04-05T01:45:29.839Z,989.27
2019-04-05T01:46:29.817Z,989.25
2019-04-05T01:47:29.805Z,989.32
2019-04-05T01:48:29.789Z,989.28
2019-04-05T01:49:29.780Z,989.34
2019-04-05T01:50:29.885Z,989.37
2019-04-05T01:51:29.775Z,989.29
2019-04-05T01:52:29.754Z,989.29
2019-04-05T01:53:29.745Z,989.29
2019-04-05T01:54:29.722Z,989.29
2019-04-05T01:55:29.721Z,989.34
2019-04-05T01:56:29.729Z,989.34
2019-04-05T01:57:29.694Z,989.35
2019-04-05T01:58:29.689Z,989.33
2019-04-05T01:59:29.685Z,989.26
2019-04-05T02:00:29.665Z,989.24
2019-04-05T02:01:29.655Z,989.34
2019-04-05T02:02:29.663Z,989.27
2019-04-05T02:03:30.543Z,989.34
2019-04-05T02:04:29.619Z,989.30
2019-04-05T02:05:29.607Z,989.33
2019-04-05T02:06:29.599Z,989.35
2019-04-05T02:07:29.591Z,989.34
2019-04-05T02:08:29.599Z,989.32
2019-04-05T02:09:29.563Z,989.33
2019-04-05T02:10:29.564Z,989.31
2019-04-05T02:11:29.545Z,989.32
2019-04-05T02:12:29.533Z,989.27
2019-04-05T02:13:29.525Z,989.28
2019-04-05T02:14:29.551Z,989.28
2019-04-05T02:15:29.539Z,989.32
2019-04-05T02:16:29.489Z,989.26
2019-04-05T02:17:29.475Z,989.30
2019-04-05T02:18:29.460Z,989.30
2019-04-05T02:19:29.469Z,989.33
2019-04-05T02:20:29.444Z,989.33
2019-04-05T02:21:29.435Z,989.36
2019-04-05T02:22:29.421Z,989.36
2019-04-05T02:23:29.416Z,989.42
2019-04-05T02:24:29.403Z,989.44
2019-04-05T02:25:29.417Z,989.41
2019-04-05T02:26:29.383Z,989.43
2019-04-05T02:27:29.363Z,989.44
2019-04-05T02:28:29.357Z,989.51
2019-04-05T02:29:29.353Z,989.48
2019-04-05T02:30:29.381Z,989.59
2019-04-05T02:31:29.381Z,989.59
2019-04-05T02:32:29.313Z,989.61
2019-04-05T02:33:29.300Z,989.60
2019-04-05T02:34:29.286Z,989.58
2019-04-05T02:35:29.278Z,989.62
2019-04-05T02:36:29.390Z,989.62
2019-04-05T02:37:29.265Z,989.65
2019-04-05T02:38:29.237Z,989.65
2019-04-05T02:39:29.233Z,989.66
2019-04-05T02:40:29.221Z,989.68
2019-04-05T02:41:29.235Z,989.69
2019-04-05T02:42:29.223Z,989.66
2019-04-05T02:43:29.197Z,989.66
2019-04-05T02:44:29.177Z,989.65
2019-04-05T02:45:29.166Z,989.66
2019-04-05T02:46:29.162Z,989.66
2019-04-05T02:47:29.151Z,989.66
2019-04-05T02:48:29.157Z,989.67
2019-04-05T02:49:29.132Z,989.65
2019-04-05T02:50:29.175Z,989.64
2019-04-05T02:51:29.103Z,989.64
2019-04-05T02:52:29.093Z,989.68
2019-04-05T02:53:29.078Z,989.70
2019-04-05T02:54:29.083Z,989.70
2019-04-05T02:55:29.056Z,989.72
2019-04-05T02:56:29.036Z,989.68
2019-04-05T02:57:29.047Z,989.76
2019-04-05T02:58:29.026Z,989.76
2019-04-05T02:59:29.016Z,989.71
2019-04-05T03:00:29.023Z,989.69
2019-04-05T03:01:28.980Z,989.75
2019-04-05T03:02:28.977Z,989.74
2019-04-05T03:03:28.973Z,989.74
2019-04-05T03:04:28.962Z,989.75
2019-04-05T03:05:28.965Z,989.71
2019-04-05T03:06:28.974Z,989.77
2019-04-05T03:07:28.913Z,989.75
2019-04-05T03:08:28.926Z,989.80
2019-04-05T03:09:28.902Z,989.78
2019-04-05T03:10:28.903Z,989.81
2019-04-05T03:11:28.884Z,989.78
2019-04-05T03:12:28.885Z,989.80
2019-04-05T03:13:28.852Z,989.80
2019-04-05T03:14:28.844Z,989.80
2019-04-05T03:15:28.829Z,989.85
2019-04-05T03:16:40.174Z,989.83
2019-04-05T03:17:28.807Z,989.83
2019-04-05T03:18:28.831Z,989.83
2019-04-05T03:19:28.786Z,989.81
2019-04-05T03:20:29.578Z,989.86
2019-04-05T03:21:28.762Z,989.90
2019-04-05T03:22:28.758Z,989.86
2019-04-05T03:23:28.780Z,989.96
2019-04-05T03:24:28.729Z,989.95
2019-04-05T03:25:28.743Z,989.90
2019-04-05T03:26:28.707Z,989.92
2019-04-05T03:27:28.707Z,989.93
2019-04-05T03:28:28.688Z,989.94
2019-04-05T03:29:28.682Z,989.97
2019-04-05T03:30:28.689Z,989.95
2019-04-05T03:31:29.549Z,989.98
2019-04-05T03:32:31.511Z,989.97
2019-04-05T03:33:28.635Z,989.94
2019-04-05T03:34:31.522Z,989.96
2019-04-05T03:35:28.616Z,989.95
2019-04-05T03:36:28.666Z,990.00
2019-04-05T03:37:28.588Z,989.97
2019-04-05T03:38:28.591Z,989.98
2019-04-05T03:39:28.572Z,990.01
2019-04-05T03:40:28.569Z,990.00
2019-04-05T03:42:27.588Z,990.04
2019-04-05T03:43:28.518Z,990.05
2019-04-05T03:44:28.525Z,990.02
2019-04-05T03:45:28.504Z,990.05
2019-04-05T03:46:29.004Z,990.06
2019-04-05T03:47:28.509Z,990.07
2019-04-05T03:48:28.467Z,990.10
2019-04-05T03:49:28.473Z,990.10
2019-04-05T03:50:28.488Z,990.14
2019-04-05T03:51:28.431Z,990.13
2019-04-05T03:52:28.433Z,990.21
2019-04-05T03:53:28.414Z,990.19
2019-04-05T03:54:28.401Z,990.25
2019-04-05T03:55:28.389Z,990.21
2019-04-05T03:56:28.416Z,990.20
2019-04-05T03:57:28.368Z,990.21
2019-04-05T03:58:28.353Z,990.23
2019-04-05T04:00:27.336Z,990.23
2019-04-05T04:01:28.324Z,990.27
2019-04-05T04:02:28.346Z,990.28
2019-04-05T04:03:28.304Z,990.30
2019-04-05T04:04:28.300Z,990.31
2019-04-05T04:05:28.285Z,990.33
2019-04-05T04:06:28.275Z,990.34
2019-04-05T04:07:29.007Z,990.35
2019-04-05T04:08:28.253Z,990.39
2019-04-05T04:09:28.246Z,990.42
2019-04-05T04:11:27.291Z,990.41
2019-04-05T04:12:28.203Z,990.40
2019-04-05T04:13:28.215Z,990.43
2019-04-05T04:14:28.188Z,990.43
2019-04-05T04:15:28.176Z,990.46
2019-04-05T04:16:28.158Z,990.44
2019-04-05T04:17:28.152Z,990.43
2019-04-05T04:18:28.135Z,990.46
2019-04-05T04:19:28.153Z,990.49
2019-04-05T04:20:28.130Z,990.53
2019-04-05T04:21:28.116Z,990.50
2019-04-05T04:22:28.098Z,990.58
2019-04-05T04:23:28.090Z,990.57
2019-04-05T04:24:28.085Z,990.57
2019-04-05T04:25:28.093Z,990.59
2019-04-05T04:26:28.056Z,990.53
2019-04-05T04:27:28.052Z,990.60
2019-04-05T04:28:28.038Z,990.59
2019-04-05T04:29:28.023Z,990.60
2019-04-05T04:30:28.011Z,990.63
2019-04-05T04:31:28.020Z,990.65
2019-04-05T04:32:27.986Z,990.63
2019-04-05T04:33:27.972Z,990.67
2019-04-05T04:34:27.971Z,990.64
2019-04-05T04:35:27.953Z,990.65
2019-04-05T04:36:27.944Z,990.70
2019-04-05T04:37:27.953Z,990.75
2019-04-05T04:38:27.930Z,990.67
2019-04-05T04:39:27.913Z,990.73
2019-04-05T04:40:27.909Z,990.75
2019-04-05T04:41:30.161Z,990.77
2019-04-05T04:42:27.926Z,990.79
2019-04-05T04:43:27.888Z,990.79
2019-04-05T04:44:30.494Z,990.78
2019-04-05T04:45:27.842Z,990.77
2019-04-05T04:46:27.832Z,990.85
2019-04-05T04:47:27.821Z,990.77
2019-04-05T04:48:27.827Z,990.78
2019-04-05T04:49:27.817Z,990.80
2019-04-05T04:50:30.486Z,990.86
2019-04-05T04:51:27.779Z,990.89
2019-04-05T04:52:27.770Z,990.89
2019-04-05T04:53:27.774Z,990.96
2019-04-05T04:54:27.758Z,990.96
2019-04-05T04:55:27.730Z,990.95
2019-04-05T04:56:27.721Z,991.00
2019-04-05T04:57:27.715Z,991.04
2019-04-05T04:58:27.703Z,991.03
2019-04-05T04:59:30.483Z,991.00
2019-04-05T05:00:27.680Z,991.04
2019-04-05T05:01:27.692Z,991.03
2019-04-05T05:02:27.664Z,991.02
2019-04-05T05:03:27.649Z,991.03
2019-04-05T05:05:26.648Z,991.01
2019-04-05T05:06:27.613Z,991.01
2019-04-05T05:07:27.604Z,991.05
2019-04-05T05:08:27.588Z,991.04
2019-04-05T05:09:27.579Z,991.08
2019-04-05T05:10:27.969Z,991.06
2019-04-05T05:11:27.559Z,991.03
2019-04-05T05:12:27.553Z,991.05
2019-04-05T05:13:27.548Z,991.06
2019-04-05T05:14:27.528Z,991.03
2019-04-05T05:15:27.573Z,991.09
2019-04-05T05:16:27.531Z,991.10
2019-04-05T05:17:37.713Z,991.10
2019-04-05T05:18:27.479Z,991.11
2019-04-05T05:19:27.479Z,991.13
2019-04-05T05:20:27.459Z,991.09
2019-04-05T05:21:27.449Z,991.14
2019-04-05T05:22:27.465Z,991.13
2019-04-05T05:23:27.446Z,991.19
2019-04-05T05:24:27.465Z,991.19
2019-04-05T05:25:27.408Z,991.18
2019-04-05T05:27:26.377Z,991.21
2019-04-05T05:28:27.978Z,991.23
2019-04-05T05:29:27.385Z,991.30
2019-04-05T05:30:27.350Z,991.30
2019-04-05T05:31:27.338Z,991.33
2019-04-05T05:32:27.337Z,991.31
2019-04-05T05:33:27.314Z,991.33
2019-04-05T05:34:27.310Z,991.31
2019-04-05T05:35:27.316Z,991.38
2019-04-05T05:36:27.287Z,991.35
2019-04-05T05:37:27.271Z,991.39
2019-04-05T05:38:27.975Z,991.35
2019-04-05T05:39:27.251Z,991.35
2019-04-05T05:40:34.796Z,991.39
2019-04-05T05:41:27.234Z,991.41
2019-04-05T05:42:27.215Z,991.43
2019-04-05T05:43:27.210Z,991.42
2019-04-05T05:44:29.975Z,991.39
2019-04-05T05:45:27.183Z,991.43
2019-04-05T05:46:27.203Z,991.47
2019-04-05T05:47:27.161Z,991.48
2019-04-05T05:48:27.171Z,991.45
2019-04-05T05:49:27.146Z,991.44
2019-04-05T05:50:27.129Z,991.47
2019-04-05T05:51:27.133Z,991.47
2019-04-05T05:52:27.509Z,991.48
2019-04-05T05:53:29.978Z,991.46
2019-04-05T05:54:27.090Z,991.54
2019-04-05T05:55:29.913Z,991.49
2019-04-05T05:56:27.065Z,991.44
2019-04-05T05:57:27.056Z,991.47
2019-04-05T05:58:27.252Z,991.49
2019-04-05T05:59:27.715Z,991.44
2019-04-05T06:00:30.260Z,991.47
2019-04-05T06:01:27.010Z,991.47
2019-04-05T06:02:27.005Z,991.51
2019-04-05T06:03:26.987Z,991.53
2019-04-05T06:04:27.003Z,991.51
2019-04-05T06:05:27.469Z,991.51
2019-04-05T06:06:26.948Z,991.49
2019-04-05T06:07:26.941Z,991.52
2019-04-05T06:08:29.229Z,991.48
2019-04-05T06:09:29.481Z,991.51
2019-04-05T06:10:26.940Z,991.56
2019-04-05T06:11:29.471Z,991.53
2019-04-05T06:12:26.906Z,991.54
2019-04-05T06:13:26.885Z,991.55
2019-04-05T06:14:26.878Z,991.57
2019-04-05T06:15:26.861Z,991.55
2019-04-05T06:16:26.874Z,991.47
2019-04-05T06:17:29.464Z,991.48
2019-04-05T06:18:26.975Z,991.60
2019-04-05T06:19:26.823Z,991.61
2019-04-05T06:20:26.804Z,991.62
2019-04-05T06:21:26.793Z,991.59
2019-04-05T06:22:28.504Z,991.63
2019-04-05T06:23:33.628Z,991.60
2019-04-05T06:24:26.770Z,991.62
2019-04-05T06:25:26.750Z,991.67
2019-04-05T06:26:26.735Z,991.65
2019-04-05T06:27:27.508Z,991.65
2019-04-05T06:28:26.771Z,991.68
2019-04-05T06:29:26.701Z,991.71
2019-04-05T06:30:28.724Z,991.67
2019-04-05T06:31:26.680Z,991.65
2019-04-05T06:32:26.696Z,991.68
2019-04-05T06:33:31.666Z,991.68
2019-04-05T06:34:26.662Z,991.68
2019-04-05T06:35:26.633Z,991.70
2019-04-05T06:36:26.632Z,991.65
2019-04-05T06:37:26.619Z,991.66
2019-04-05T06:38:26.609Z,991.67
2019-04-05T06:39:26.619Z,991.68
2019-04-05T06:40:39.731Z,991.66
2019-04-05T06:41:26.568Z,991.74
2019-04-05T06:42:26.572Z,991.73
2019-04-05T06:43:26.557Z,991.70
2019-04-05T06:44:27.944Z,991.69
2019-04-05T06:45:26.565Z,991.68
2019-04-05T06:46:29.466Z,991.73
2019-04-05T06:47:26.504Z,991.72
2019-04-05T06:48:29.355Z,991.75
2019-04-05T06:49:26.499Z,991.78
2019-04-05T06:50:26.508Z,991.84
2019-04-05T06:51:26.475Z,991.86
2019-04-05T06:52:26.457Z,991.85
2019-04-05T06:53:26.439Z,991.85
2019-04-05T06:54:26.432Z,991.85
2019-04-05T06:55:26.415Z,991.86
2019-04-05T06:56:26.424Z,991.90
2019-04-05T06:57:26.396Z,991.87
2019-04-05T06:58:28.858Z,991.90
2019-04-05T06:59:26.376Z,991.90
2019-04-05T07:00:26.373Z,991.91
2019-04-05T07:01:26.349Z,991.91
2019-04-05T07:02:26.382Z,991.96
2019-04-05T07:03:26.325Z,991.95
2019-04-05T07:04:26.957Z,991.96
2019-04-05T07:05:26.315Z,992.00
2019-04-05T07:06:26.308Z,991.97
2019-04-05T07:07:26.281Z,991.92
2019-04-05T07:08:26.299Z,991.93
2019-04-05T07:09:26.269Z,991.93
2019-04-05T07:10:26.254Z,991.95
2019-04-05T07:11:28.956Z,991.98
2019-04-05T07:12:26.233Z,992.03
2019-04-05T07:13:27.523Z,992.03
2019-04-05T07:14:26.259Z,992.06
2019-04-05T07:15:26.203Z,992.09
2019-04-05T07:16:26.188Z,992.12
2019-04-05T07:17:26.184Z,992.13
2019-04-05T07:18:33.959Z,992.16
2019-04-05T07:19:26.353Z,992.19
2019-04-05T07:20:26.138Z,992.17
2019-04-05T07:21:26.133Z,992.17
2019-04-05T07:22:36.981Z,992.16
2019-04-05T07:23:26.121Z,992.15
2019-04-05T07:24:26.098Z,992.21
2019-04-05T07:25:29.136Z,992.23
2019-04-05T07:26:26.080Z,992.21
2019-04-05T07:27:26.065Z,992.25
2019-04-05T07:28:26.057Z,992.24
2019-04-05T07:29:26.072Z,992.22
2019-04-05T07:30:28.729Z,992.20
2019-04-05T07:31:27.952Z,992.20
2019-04-05T07:32:26.057Z,992.22
2019-04-05T07:33:26.014Z,992.23
2019-04-05T07:34:25.982Z,992.31
2019-04-05T07:35:33.366Z,992.35
2019-04-05T07:36:25.968Z,992.34
2019-04-05T07:37:25.986Z,992.29
2019-04-05T07:38:25.948Z,992.28
2019-04-05T07:39:26.083Z,992.27
2019-04-05T07:40:25.926Z,992.30
2019-04-05T07:41:25.910Z,992.29
2019-04-05T07:42:25.899Z,992.32
2019-04-05T07:43:25.888Z,992.34
2019-04-05T07:44:25.879Z,992.30
2019-04-05T07:45:25.891Z,992.32
2019-04-05T07:46:25.848Z,992.33
2019-04-05T07:47:25.859Z,992.31
2019-04-05T07:48:25.873Z,992.34
2019-04-05T07:49:25.821Z,992.35
2019-04-05T07:50:25.988Z,992.34
2019-04-05T07:51:25.797Z,992.28
2019-04-05T07:52:25.789Z,992.32
2019-04-05T07:53:25.788Z,992.33
2019-04-05T07:54:25.759Z,992.27
2019-04-05T07:55:25.878Z,992.27
2019-04-05T07:56:25.746Z,992.28
2019-04-05T07:57:25.739Z,992.22
2019-04-05T07:58:25.719Z,992.23
2019-04-05T07:59:25.735Z,992.20
2019-04-05T08:00:25.712Z,992.23
2019-04-05T08:01:25.733Z,992.27
2019-04-05T08:02:25.690Z,992.32
2019-04-05T08:03:25.661Z,992.29
2019-04-05T08:04:25.681Z,992.22
2019-04-05T08:05:25.656Z,992.24
2019-04-05T08:06:28.443Z,992.26
2019-04-05T08:07:25.650Z,992.29
2019-04-05T08:08:25.611Z,992.26
2019-04-05T08:09:25.608Z,992.26
2019-04-05T08:10:25.594Z,992.28
2019-04-05T08:11:25.584Z,992.26
2019-04-05T08:12:25.573Z,992.28
2019-04-05T08:13:25.580Z,992.28
2019-04-05T08:14:25.562Z,992.26
2019-04-05T08:15:25.550Z,992.24
2019-04-05T08:16:25.535Z,992.23
2019-04-05T08:17:25.522Z,992.25
2019-04-05T08:18:25.502Z,992.29
2019-04-05T08:19:25.527Z,992.31
2019-04-05T08:20:25.607Z,992.35
2019-04-05T08:21:25.472Z,992.27
2019-04-05T08:22:25.466Z,992.27
2019-04-05T08:23:25.455Z,992.25
2019-04-05T08:24:25.446Z,992.30
2019-04-05T08:25:25.433Z,992.31
2019-04-05T08:26:25.444Z,992.31
2019-04-05T08:27:25.411Z,992.28
2019-04-05T08:28:25.398Z,992.35
2019-04-05T08:29:25.390Z,992.32
2019-04-05T08:30:25.377Z,992.26
2019-04-05T08:31:25.366Z,992.28
2019-04-05T08:32:25.387Z,992.32
2019-04-05T08:33:25.354Z,992.24
2019-04-05T08:34:25.329Z,992.27
2019-04-05T08:35:25.324Z,992.25
2019-04-05T08:36:25.932Z,992.22
2019-04-05T08:37:25.332Z,992.20
2019-04-05T08:38:25.301Z,992.20
2019-04-05T08:39:25.285Z,992.19
2019-04-05T08:40:25.273Z,992.19
2019-04-05T08:41:25.251Z,992.22
2019-04-05T08:42:25.249Z,992.23
2019-04-05T08:43:25.266Z,992.24
2019-04-05T08:44:25.223Z,992.21
2019-04-05T08:46:24.208Z,992.22
2019-04-05T08:47:25.201Z,992.21
2019-04-05T08:48:25.174Z,992.20
2019-04-05T08:49:25.219Z,992.17
2019-04-05T08:50:25.158Z,992.13
2019-04-05T08:51:25.155Z,992.13
2019-04-05T08:52:27.061Z,992.15
2019-04-05T08:53:25.119Z,992.15
2019-04-05T08:54:32.474Z,992.16
2019-04-05T08:55:25.107Z,992.14
2019-04-05T08:56:25.111Z,992.14
2019-04-05T08:57:25.079Z,992.14
2019-04-05T08:58:33.316Z,992.10
2019-04-05T08:59:25.058Z,992.08
2019-04-05T09:00:25.098Z,992.11
2019-04-05T09:01:25.056Z,992.13
2019-04-05T09:02:25.035Z,992.13
2019-04-05T09:03:25.927Z,992.09
2019-04-05T09:04:25.013Z,992.04
2019-04-05T09:05:24.999Z,992.01
2019-04-05T09:06:25.022Z,991.98
2019-04-05T09:07:24.976Z,992.00
2019-04-05T09:08:24.961Z,991.98
2019-04-05T09:09:24.958Z,992.00
2019-04-05T09:10:24.947Z,992.01
2019-04-05T09:11:24.944Z,992.00
2019-04-05T09:12:24.937Z,991.97
2019-04-05T09:13:24.929Z,991.89
2019-04-05T09:14:24.891Z,991.91
2019-04-05T09:15:24.876Z,991.88
2019-04-05T09:16:24.882Z,991.91
2019-04-05T09:17:24.899Z,991.90
2019-04-05T09:18:24.853Z,991.89
2019-04-05T09:19:25.463Z,991.86
2019-04-05T09:20:24.906Z,991.88
2019-04-05T09:21:24.819Z,991.81
2019-04-05T09:22:24.824Z,991.81
2019-04-05T09:23:24.810Z,991.81
2019-04-05T09:24:24.800Z,991.76
2019-04-05T09:25:24.780Z,991.81
2019-04-05T09:26:24.791Z,991.73
2019-04-05T09:27:27.424Z,991.77
2019-04-05T09:28:24.747Z,991.78
2019-04-05T09:29:24.733Z,991.78
2019-04-05T09:30:24.755Z,991.77
2019-04-05T09:31:24.708Z,991.72
2019-04-05T09:32:24.697Z,991.76
2019-04-05T09:33:24.684Z,991.75
2019-04-05T09:34:24.685Z,991.80
2019-04-05T09:35:24.665Z,991.78
2019-04-05T09:36:25.463Z,991.76
2019-04-05T09:37:24.644Z,991.76
2019-04-05T09:38:24.633Z,991.73
2019-04-05T09:39:24.621Z,991.71
2019-04-05T09:40:24.622Z,991.70
2019-04-05T09:41:24.614Z,991.69
2019-04-05T09:42:24.613Z,991.70
2019-04-05T09:43:24.632Z,991.70
2019-04-05T09:44:24.574Z,991.70
2019-04-05T09:45:24.553Z,991.70
2019-04-05T09:46:24.537Z,991.71
2019-04-05T09:47:24.531Z,991.70
2019-04-05T09:48:24.734Z,991.70
2019-04-05T09:49:36.109Z,991.73
2019-04-05T09:50:24.513Z,991.74
2019-04-05T09:51:24.488Z,991.73
2019-04-05T09:52:24.490Z,991.76
2019-04-05T09:53:24.466Z,991.70
2019-04-05T09:54:24.496Z,991.77
2019-04-05T09:55:24.446Z,991.71
2019-04-05T09:56:24.435Z,991.70
2019-04-05T09:57:24.434Z,991.70
2019-04-05T09:58:24.417Z,991.64
2019-04-05T09:59:24.395Z,991.60
2019-04-05T10:00:24.435Z,991.63
2019-04-05T10:01:24.421Z,991.63
2019-04-05T10:02:24.367Z,991.64
2019-04-05T10:03:24.359Z,991.60
2019-04-05T10:04:24.355Z,991.64
2019-04-05T10:05:24.336Z,991.61
2019-04-05T10:06:24.365Z,991.62
2019-04-05T10:07:24.314Z,991.61
2019-04-05T10:08:24.298Z,991.65
2019-04-05T10:09:24.285Z,991.61
2019-04-05T10:10:24.304Z,991.62
2019-04-05T10:11:24.271Z,991.63
2019-04-05T10:12:24.275Z,991.64
2019-04-05T10:13:24.912Z,991.64
2019-04-05T10:14:24.241Z,991.62
2019-04-05T10:15:24.216Z,991.56
2019-04-05T10:16:24.214Z,991.60
2019-04-05T10:17:24.239Z,991.59
2019-04-05T10:18:24.188Z,991.60
2019-04-05T10:19:24.178Z,991.68
2019-04-05T10:21:23.155Z,991.66
2019-04-05T10:22:24.147Z,991.65
2019-04-05T10:23:24.162Z,991.67
2019-04-05T10:24:24.911Z,991.61
2019-04-05T10:25:24.118Z,991.60
2019-04-05T10:26:24.112Z,991.59
2019-04-05T10:27:24.094Z,991.55
2019-04-05T10:28:24.081Z,991.61
2019-04-05T10:29:24.118Z,991.60
2019-04-05T10:30:24.058Z,991.62
2019-04-05T10:31:24.052Z,991.55
2019-04-05T10:32:24.047Z,991.61
2019-04-05T10:33:24.070Z,991.60
2019-04-05T10:34:24.008Z,991.60
2019-04-05T10:35:24.045Z,991.59
2019-04-05T10:36:24.036Z,991.60
2019-04-05T10:37:23.985Z,991.58
2019-04-05T10:38:23.967Z,991.57
2019-04-05T10:39:23.965Z,991.55
2019-04-05T10:40:23.944Z,991.57
2019-04-05T10:41:23.973Z,991.52
2019-04-05T10:42:23.969Z,991.54
2019-04-05T10:43:23.916Z,991.53
2019-04-05T10:44:23.903Z,991.59
2019-04-05T10:45:23.905Z,991.53
2019-04-05T10:46:23.875Z,991.57
2019-04-05T10:47:23.951Z,991.56
2019-04-05T10:48:23.860Z,991.54
2019-04-05T10:49:24.404Z,991.53
2019-04-05T10:50:26.413Z,991.56
2019-04-05T10:51:26.405Z,991.53
2019-04-05T10:52:23.885Z,991.55
2019-04-05T10:53:23.810Z,991.55
2019-04-05T10:54:24.406Z,991.52
2019-04-05T10:55:23.781Z,991.48
2019-04-05T10:56:23.773Z,991.50
2019-04-05T10:57:23.757Z,991.47
2019-04-05T10:58:23.778Z,991.53
2019-04-05T11:01:22.709Z,991.50
2019-04-05T11:02:24.401Z,991.51
2019-04-05T11:03:26.438Z,991.50
2019-04-05T11:04:23.712Z,991.50
2019-04-05T11:05:23.703Z,991.49
2019-04-05T11:06:23.661Z,991.47
2019-04-05T11:07:23.651Z,991.47
2019-04-05T11:08:23.639Z,991.50
2019-04-05T11:09:23.628Z,991.46
2019-04-05T11:10:26.406Z,991.47
2019-04-05T11:11:23.615Z,991.50
2019-04-05T11:12:23.595Z,991.50
2019-04-05T11:13:23.586Z,991.51
2019-04-05T11:14:23.573Z,991.45
2019-04-05T11:15:25.467Z,991.46
2019-04-05T11:16:23.558Z,991.49
2019-04-05T11:17:24.399Z,991.50
2019-04-05T11:18:23.534Z,991.51
2019-04-05T11:19:23.530Z,991.50
2019-04-05T11:20:26.397Z,991.50
2019-04-05T11:21:23.498Z,991.46
2019-04-05T11:22:23.548Z,991.43
2019-04-05T11:23:23.506Z,991.40
2019-04-05T11:24:23.463Z,991.36
2019-04-05T11:25:23.454Z,991.37
2019-04-05T11:26:23.445Z,991.40
2019-04-05T11:27:23.431Z,991.41
2019-04-05T11:28:23.423Z,991.36
2019-04-05T11:29:23.431Z,991.35
2019-04-05T11:30:23.401Z,991.31
2019-04-05T11:31:23.397Z,991.33
2019-04-05T11:32:23.379Z,991.37
2019-04-05T11:33:23.361Z,991.37
2019-04-05T11:34:23.437Z,991.35
2019-04-05T11:35:23.350Z,991.35
2019-04-05T11:36:25.899Z,991.33
2019-04-05T11:37:23.319Z,991.34
2019-04-05T11:38:25.903Z,991.31
2019-04-05T11:39:23.301Z,991.32
2019-04-05T11:40:24.219Z,991.31
2019-04-05T11:41:23.307Z,991.33
2019-04-05T11:42:25.895Z,991.33
2019-04-05T11:43:26.232Z,991.30
2019-04-05T11:44:23.250Z,991.31
2019-04-05T11:45:23.230Z,991.37
2019-04-05T11:46:23.463Z,991.34
2019-04-05T11:47:23.215Z,991.34
2019-04-05T11:48:23.202Z,991.36
2019-04-05T11:49:23.185Z,991.34
2019-04-05T11:50:33.920Z,991.35
2019-04-05T11:51:23.171Z,991.32
2019-04-05T11:52:23.180Z,991.36
2019-04-05T11:53:23.139Z,991.36
2019-04-05T11:54:23.136Z,991.31
2019-04-05T11:55:23.125Z,991.36
2019-04-05T11:56:23.109Z,991.26
2019-04-05T11:57:23.100Z,991.23
2019-04-05T11:58:23.120Z,991.31
2019-04-05T11:59:23.077Z,991.26
2019-04-05T12:00:23.929Z,991.28
2019-04-05T12:01:23.666Z,991.27
2019-04-05T12:02:23.053Z,991.28
2019-04-05T12:03:23.028Z,991.29
2019-04-05T12:04:23.020Z,991.28
2019-04-05T12:05:26.850Z,991.31
2019-04-05T12:06:22.997Z,991.31
2019-04-05T12:07:26.281Z,991.31
2019-04-05T12:08:22.984Z,991.32
2019-04-05T12:09:22.971Z,991.24
2019-04-05T12:10:22.959Z,991.20
2019-04-05T12:11:23.903Z,991.25
2019-04-05T12:12:25.504Z,991.28
2019-04-05T12:13:23.461Z,991.27
2019-04-05T12:14:30.022Z,991.28
2019-04-05T12:15:22.937Z,991.28
2019-04-05T12:16:22.894Z,991.27
2019-04-05T12:17:22.877Z,991.27
2019-04-05T12:18:22.882Z,991.26
2019-04-05T12:19:22.859Z,991.24
2019-04-05T12:20:22.858Z,991.23
2019-04-05T12:21:22.874Z,991.23
2019-04-05T12:22:22.828Z,991.21
2019-04-05T12:23:22.808Z,991.26
2019-04-05T12:24:22.807Z,991.24
2019-04-05T12:25:22.824Z,991.25
2019-04-05T12:26:22.781Z,991.26
2019-04-05T12:27:22.787Z,991.27
2019-04-05T12:28:22.764Z,991.22
2019-04-05T12:29:22.748Z,991.22
2019-04-05T12:30:22.730Z,991.17
2019-04-05T12:31:22.753Z,991.21
2019-04-05T12:32:33.038Z,991.18
2019-04-05T12:33:22.721Z,991.18
2019-04-05T12:34:22.697Z,991.23
2019-04-05T12:35:22.680Z,991.19
2019-04-05T12:36:22.790Z,991.20
2019-04-05T12:37:22.664Z,991.14
2019-04-05T12:38:28.342Z,991.17